BRX1772 ESSA-EETN
Flight info
| Callsign | BRX1772 |
|---|---|
| Flight time | 0h 53m |
| Altitude | 21000 |
| Route | BABAP5G BABAP P607 APTUG M851 NISIX DCT OSTOT DCT OSMUR OSMUR1L |
| Aircraft | AT76/M-SDFGIRY/S |
Departure
| Time | 2026-05-04 19:39 |
|---|---|
| Airport | Stockholm-Arlanda Airport (ESSA) |
Arrival
| Time | 2026-05-04 20:33 |
|---|---|
| Airport | Lennart Meri Tallinn Airport (EETN) |
| Time | Latitude | Longitude | Altitude | Speed | Heading |
|---|---|---|---|---|---|
| 2026-05-04 19:18 | 59.65308 | 17.93826 | 134 ft | 0 kts | 254° |
| 2026-05-04 19:29 | 59.65311 | 17.93849 | 134 ft | 4 kts | 251° |
| 2026-05-04 19:29 | 59.65321 | 17.93899 | 134 ft | 4 kts | 242° |
| 2026-05-04 19:29 | 59.65335 | 17.93944 | 134 ft | 4 kts | 244° |
| 2026-05-04 19:29 | 59.65342 | 17.93977 | 134 ft | 4 kts | 320° |
| 2026-05-04 19:30 | 59.65339 | 17.93981 | 134 ft | 1 kts | 345° |
| 2026-05-04 19:30 | 59.65338 | 17.93982 | 134 ft | 0 kts | 345° |
| 2026-05-04 19:31 | 59.65338 | 17.93981 | 134 ft | 0 kts | 345° |
| 2026-05-04 19:32 | 59.65345 | 17.93977 | 134 ft | 4 kts | 344° |
| 2026-05-04 19:33 | 59.65388 | 17.93956 | 134 ft | 9 kts | 345° |
| 2026-05-04 19:33 | 59.65461 | 17.93919 | 134 ft | 12 kts | 346° |
| 2026-05-04 19:33 | 59.65544 | 17.93877 | 134 ft | 13 kts | 346° |
| 2026-05-04 19:33 | 59.65631 | 17.93832 | 134 ft | 13 kts | 344° |
| 2026-05-04 19:34 | 59.65668 | 17.93701 | 134 ft | 11 kts | 250° |
| 2026-05-04 19:34 | 59.65648 | 17.93562 | 134 ft | 10 kts | 253° |
| 2026-05-04 19:34 | 59.65635 | 17.93440 | 134 ft | 9 kts | 256° |
| 2026-05-04 19:34 | 59.65620 | 17.93325 | 134 ft | 9 kts | 255° |
| 2026-05-04 19:35 | 59.65602 | 17.93202 | 134 ft | 10 kts | 253° |
| 2026-05-04 19:35 | 59.65586 | 17.93076 | 134 ft | 9 kts | 261° |
| 2026-05-04 19:35 | 59.65573 | 17.92951 | 134 ft | 10 kts | 256° |
| 2026-05-04 19:35 | 59.65554 | 17.92803 | 134 ft | 12 kts | 257° |
| 2026-05-04 19:36 | 59.65532 | 17.92632 | 134 ft | 13 kts | 257° |
| 2026-05-04 19:36 | 59.65578 | 17.92501 | 134 ft | 14 kts | 353° |
| 2026-05-04 19:36 | 59.65679 | 17.92452 | 134 ft | 15 kts | 343° |
| 2026-05-04 19:36 | 59.65771 | 17.92428 | 134 ft | 9 kts | 18° |
| 2026-05-04 19:37 | 59.65841 | 17.92450 | 135 ft | 11 kts | 10° |
| 2026-05-04 19:37 | 59.65908 | 17.92400 | 135 ft | 10 kts | 297° |
| 2026-05-04 19:37 | 59.65919 | 17.92296 | 136 ft | 6 kts | 282° |
| 2026-05-04 19:37 | 59.65924 | 17.92245 | 138 ft | 3 kts | 282° |
| 2026-05-04 19:38 | 59.65913 | 17.92131 | 142 ft | 9 kts | 224° |
| 2026-05-04 19:38 | 59.65869 | 17.92097 | 142 ft | 5 kts | 191° |
| 2026-05-04 19:38 | 59.65808 | 17.92077 | 141 ft | 25 kts | 191° |
| 2026-05-04 19:38 | 59.65403 | 17.91929 | 141 ft | 91 kts | 194° |
| 2026-05-04 19:39 | 59.64624 | 17.91705 | 322 ft | 125 kts | 189° |
| 2026-05-04 19:39 | 59.63720 | 17.91357 | 806 ft | 139 kts | 197° |
| 2026-05-04 19:39 | 59.62750 | 17.90831 | 1312 ft | 152 kts | 205° |
| 2026-05-04 19:39 | 59.61615 | 17.90343 | 1624 ft | 177 kts | 194° |
| 2026-05-04 19:40 | 59.60396 | 17.90212 | 2354 ft | 177 kts | 190° |
| 2026-05-04 19:40 | 59.59156 | 17.90154 | 3010 ft | 179 kts | 190° |
| 2026-05-04 19:40 | 59.57902 | 17.90089 | 3666 ft | 181 kts | 190° |
| 2026-05-04 19:40 | 59.56627 | 17.90349 | 4306 ft | 195 kts | 162° |
| 2026-05-04 19:41 | 59.55544 | 17.92070 | 4858 ft | 207 kts | 138° |
| 2026-05-04 19:41 | 59.54510 | 17.94294 | 4955 ft | 229 kts | 133° |
| 2026-05-04 19:41 | 59.53853 | 17.97078 | 5360 ft | 231 kts | 96° |
| 2026-05-04 19:41 | 59.54127 | 18.00125 | 5757 ft | 225 kts | 58° |
| 2026-05-04 19:42 | 59.55021 | 18.02615 | 6102 ft | 221 kts | 44° |
| 2026-05-04 19:42 | 59.55805 | 18.05236 | 6372 ft | 231 kts | 75° |
| 2026-05-04 19:42 | 59.55668 | 18.08368 | 6732 ft | 233 kts | 113° |
| 2026-05-04 19:42 | 59.54973 | 18.11262 | 7112 ft | 233 kts | 119° |
| 2026-05-04 19:43 | 59.54216 | 18.14104 | 7494 ft | 235 kts | 119° |
| 2026-05-04 19:43 | 59.53546 | 18.17067 | 7875 ft | 237 kts | 112° |
| 2026-05-04 19:43 | 59.53043 | 18.20175 | 8252 ft | 239 kts | 105° |
| 2026-05-04 19:43 | 59.52705 | 18.23388 | 8625 ft | 241 kts | 100° |
| 2026-05-04 19:44 | 59.52452 | 18.26653 | 9005 ft | 242 kts | 99° |
| 2026-05-04 19:44 | 59.52214 | 18.29942 | 9376 ft | 243 kts | 99° |
| 2026-05-04 19:44 | 59.51963 | 18.33253 | 9723 ft | 245 kts | 100° |
| 2026-05-04 19:44 | 59.51683 | 18.36576 | 10036 ft | 247 kts | 101° |
| 2026-05-04 19:45 | 59.51385 | 18.39931 | 10357 ft | 250 kts | 102° |
| 2026-05-04 19:45 | 59.51083 | 18.43325 | 10656 ft | 252 kts | 102° |
| 2026-05-04 19:45 | 59.50780 | 18.46741 | 10956 ft | 255 kts | 102° |
| 2026-05-04 19:45 | 59.50470 | 18.50202 | 11223 ft | 258 kts | 102° |
| 2026-05-04 19:46 | 59.50157 | 18.53709 | 11521 ft | 261 kts | 103° |
| 2026-05-04 19:46 | 59.49844 | 18.57202 | 11816 ft | 263 kts | 103° |
| 2026-05-04 19:46 | 59.49524 | 18.60764 | 12115 ft | 266 kts | 103° |
| 2026-05-04 19:46 | 59.49200 | 18.64368 | 12412 ft | 268 kts | 104° |
| 2026-05-04 19:47 | 59.48873 | 18.67989 | 12695 ft | 270 kts | 104° |
| 2026-05-04 19:47 | 59.48540 | 18.71661 | 12988 ft | 272 kts | 104° |
| 2026-05-04 19:47 | 59.48205 | 18.75344 | 13277 ft | 275 kts | 104° |
| 2026-05-04 19:47 | 59.47866 | 18.79058 | 13550 ft | 277 kts | 104° |
| 2026-05-04 19:48 | 59.47523 | 18.82798 | 13806 ft | 278 kts | 104° |
| 2026-05-04 19:48 | 59.47180 | 18.86554 | 14054 ft | 280 kts | 104° |
| 2026-05-04 19:48 | 59.46833 | 18.90336 | 14299 ft | 282 kts | 104° |
| 2026-05-04 19:48 | 59.46485 | 18.94139 | 14537 ft | 284 kts | 104° |
| 2026-05-04 19:49 | 59.46137 | 18.97921 | 14772 ft | 285 kts | 104° |
| 2026-05-04 19:49 | 59.45781 | 19.01773 | 15016 ft | 287 kts | 104° |
| 2026-05-04 19:49 | 59.45421 | 19.05648 | 15245 ft | 289 kts | 104° |
| 2026-05-04 19:49 | 59.45058 | 19.09542 | 15481 ft | 290 kts | 104° |
| 2026-05-04 19:50 | 59.44693 | 19.13449 | 15707 ft | 292 kts | 104° |
| 2026-05-04 19:50 | 59.44325 | 19.17385 | 15928 ft | 293 kts | 104° |
| 2026-05-04 19:50 | 59.43954 | 19.21341 | 16146 ft | 295 kts | 104° |
| 2026-05-04 19:50 | 59.43579 | 19.25306 | 16360 ft | 296 kts | 104° |
| 2026-05-04 19:51 | 59.43200 | 19.29313 | 16568 ft | 298 kts | 104° |
| 2026-05-04 19:51 | 59.42818 | 19.33313 | 16773 ft | 299 kts | 104° |
| 2026-05-04 19:51 | 59.42434 | 19.37348 | 16974 ft | 301 kts | 104° |
| 2026-05-04 19:51 | 59.42046 | 19.41407 | 17166 ft | 302 kts | 104° |
| 2026-05-04 19:52 | 59.41662 | 19.45418 | 17367 ft | 304 kts | 104° |
| 2026-05-04 19:52 | 59.41270 | 19.49496 | 17550 ft | 305 kts | 104° |
| 2026-05-04 19:52 | 59.40872 | 19.53611 | 17738 ft | 306 kts | 104° |
| 2026-05-04 19:52 | 59.40474 | 19.57727 | 17921 ft | 307 kts | 104° |
| 2026-05-04 19:53 | 59.40207 | 19.60459 | 18026 ft | 308 kts | 104° |
| 2026-05-04 19:53 | 59.39801 | 19.64602 | 18179 ft | 309 kts | 104° |
| 2026-05-04 19:53 | 59.39395 | 19.68763 | 18344 ft | 310 kts | 104° |
| 2026-05-04 19:53 | 59.38985 | 19.72932 | 18495 ft | 311 kts | 104° |
| 2026-05-04 19:54 | 59.38574 | 19.77080 | 18709 ft | 308 kts | 104° |
| 2026-05-04 19:54 | 59.38166 | 19.81201 | 18869 ft | 308 kts | 104° |
| 2026-05-04 19:54 | 59.37756 | 19.85334 | 19009 ft | 309 kts | 104° |
| 2026-05-04 19:54 | 59.37341 | 19.89483 | 19154 ft | 310 kts | 104° |
| 2026-05-04 19:55 | 59.36934 | 19.93548 | 19578 ft | 298 kts | 105° |
| 2026-05-04 19:55 | 59.36537 | 19.97481 | 19928 ft | 292 kts | 105° |
| 2026-05-04 19:55 | 59.36142 | 20.01389 | 20138 ft | 293 kts | 105° |
| 2026-05-04 19:55 | 59.35744 | 20.05310 | 20330 ft | 294 kts | 105° |
| 2026-05-04 19:56 | 59.35345 | 20.09249 | 20518 ft | 295 kts | 105° |
| 2026-05-04 19:56 | 59.34942 | 20.13206 | 20702 ft | 296 kts | 105° |
| 2026-05-04 19:56 | 59.34538 | 20.17170 | 20885 ft | 297 kts | 105° |
| 2026-05-04 19:56 | 59.34129 | 20.21151 | 21072 ft | 299 kts | 105° |
| 2026-05-04 19:57 | 59.33719 | 20.25148 | 21244 ft | 300 kts | 105° |
| 2026-05-04 19:57 | 59.33306 | 20.29160 | 21421 ft | 301 kts | 105° |
| 2026-05-04 19:57 | 59.32892 | 20.33176 | 21589 ft | 302 kts | 105° |
| 2026-05-04 19:57 | 59.32474 | 20.37216 | 21766 ft | 303 kts | 105° |
| 2026-05-04 19:58 | 59.32052 | 20.41259 | 21961 ft | 301 kts | 105° |
| 2026-05-04 19:58 | 59.31698 | 20.45245 | 22147 ft | 303 kts | 97° |
| 2026-05-04 19:58 | 59.31622 | 20.49383 | 22296 ft | 305 kts | 90° |
| 2026-05-04 19:58 | 59.31664 | 20.53532 | 22450 ft | 306 kts | 89° |
| 2026-05-04 19:59 | 59.31705 | 20.57710 | 22577 ft | 307 kts | 90° |
| 2026-05-04 19:59 | 59.31682 | 20.61920 | 22657 ft | 311 kts | 92° |
| 2026-05-04 19:59 | 59.31608 | 20.66189 | 22686 ft | 316 kts | 93° |
| 2026-05-04 19:59 | 59.31534 | 20.70520 | 22701 ft | 321 kts | 93° |
| 2026-05-04 20:00 | 59.31455 | 20.74919 | 22701 ft | 325 kts | 93° |
| 2026-05-04 20:00 | 59.31381 | 20.79369 | 22717 ft | 329 kts | 93° |
| 2026-05-04 20:00 | 59.31309 | 20.83874 | 22713 ft | 332 kts | 92° |
| 2026-05-04 20:00 | 59.31243 | 20.88420 | 22713 ft | 335 kts | 92° |
| 2026-05-04 20:01 | 59.31175 | 20.93000 | 22713 ft | 337 kts | 92° |
| 2026-05-04 20:01 | 59.31105 | 20.97605 | 22712 ft | 339 kts | 92° |
| 2026-05-04 20:01 | 59.31035 | 21.02226 | 22711 ft | 341 kts | 92° |
| 2026-05-04 20:01 | 59.30961 | 21.06874 | 22691 ft | 342 kts | 93° |
| 2026-05-04 20:02 | 59.30886 | 21.11462 | 22708 ft | 341 kts | 93° |
| 2026-05-04 20:02 | 59.30809 | 21.16113 | 22713 ft | 342 kts | 93° |
| 2026-05-04 20:02 | 59.30730 | 21.20770 | 22716 ft | 342 kts | 93° |
| 2026-05-04 20:02 | 59.30653 | 21.25428 | 22740 ft | 343 kts | 93° |
| 2026-05-04 20:03 | 59.30572 | 21.30092 | 22728 ft | 344 kts | 93° |
| 2026-05-04 20:03 | 59.30483 | 21.34781 | 22729 ft | 345 kts | 94° |
| 2026-05-04 20:03 | 59.30396 | 21.39480 | 22727 ft | 345 kts | 94° |
| 2026-05-04 20:03 | 59.30308 | 21.44174 | 22726 ft | 345 kts | 94° |
| 2026-05-04 20:04 | 59.30217 | 21.48868 | 22725 ft | 345 kts | 94° |
| 2026-05-04 20:04 | 59.30125 | 21.53578 | 22722 ft | 346 kts | 94° |
| 2026-05-04 20:04 | 59.30032 | 21.58276 | 22725 ft | 346 kts | 94° |
| 2026-05-04 20:04 | 59.29938 | 21.62977 | 22728 ft | 346 kts | 94° |
| 2026-05-04 20:05 | 59.29842 | 21.67623 | 22724 ft | 346 kts | 94° |
| 2026-05-04 20:05 | 59.29745 | 21.72337 | 22728 ft | 346 kts | 94° |
| 2026-05-04 20:05 | 59.29644 | 21.77042 | 22712 ft | 346 kts | 93° |
| 2026-05-04 20:05 | 59.29552 | 21.81734 | 22721 ft | 345 kts | 93° |
| 2026-05-04 20:06 | 59.29451 | 21.86419 | 22726 ft | 345 kts | 93° |
| 2026-05-04 20:06 | 59.29342 | 21.91125 | 22732 ft | 345 kts | 94° |
| 2026-05-04 20:06 | 59.29235 | 21.95800 | 22733 ft | 345 kts | 94° |
| 2026-05-04 20:06 | 59.29128 | 22.00500 | 22731 ft | 345 kts | 94° |
| 2026-05-04 20:07 | 59.29019 | 22.05181 | 22737 ft | 345 kts | 94° |
| 2026-05-04 20:07 | 59.28907 | 22.09867 | 22732 ft | 345 kts | 94° |
| 2026-05-04 20:07 | 59.28793 | 22.14555 | 22733 ft | 345 kts | 94° |
| 2026-05-04 20:07 | 59.28677 | 22.19234 | 22735 ft | 345 kts | 94° |
| 2026-05-04 20:08 | 59.28564 | 22.23916 | 22737 ft | 345 kts | 94° |
| 2026-05-04 20:08 | 59.28447 | 22.28592 | 22737 ft | 345 kts | 94° |
| 2026-05-04 20:08 | 59.28327 | 22.33211 | 22741 ft | 345 kts | 94° |
| 2026-05-04 20:08 | 59.28204 | 22.37891 | 22737 ft | 345 kts | 94° |
| 2026-05-04 20:09 | 59.28083 | 22.42569 | 22700 ft | 344 kts | 94° |
| 2026-05-04 20:09 | 59.27970 | 22.47222 | 22724 ft | 340 kts | 94° |
| 2026-05-04 20:09 | 59.27850 | 22.51823 | 22733 ft | 338 kts | 94° |
| 2026-05-04 20:09 | 59.27738 | 22.56421 | 22736 ft | 338 kts | 94° |
| 2026-05-04 20:10 | 59.27621 | 22.61015 | 22739 ft | 338 kts | 94° |
| 2026-05-04 20:10 | 59.27494 | 22.65599 | 22740 ft | 338 kts | 95° |
| 2026-05-04 20:10 | 59.27357 | 22.70186 | 22746 ft | 338 kts | 95° |
| 2026-05-04 20:10 | 59.27220 | 22.74761 | 22747 ft | 338 kts | 95° |
| 2026-05-04 20:11 | 59.27081 | 22.79403 | 22343 ft | 350 kts | 95° |
| 2026-05-04 20:11 | 59.26936 | 22.84271 | 21692 ft | 367 kts | 95° |
| 2026-05-04 20:11 | 59.26786 | 22.89346 | 21121 ft | 378 kts | 95° |
| 2026-05-04 20:11 | 59.26634 | 22.94485 | 20779 ft | 380 kts | 95° |
| 2026-05-04 20:12 | 59.26479 | 22.99630 | 20518 ft | 378 kts | 95° |
| 2026-05-04 20:12 | 59.26321 | 23.04762 | 20273 ft | 377 kts | 95° |
| 2026-05-04 20:12 | 59.26158 | 23.09862 | 20035 ft | 375 kts | 95° |
| 2026-05-04 20:12 | 59.25998 | 23.14939 | 19809 ft | 373 kts | 96° |
| 2026-05-04 20:13 | 59.25833 | 23.19978 | 19627 ft | 372 kts | 96° |
| 2026-05-04 20:13 | 59.25667 | 23.25010 | 19407 ft | 371 kts | 96° |
| 2026-05-04 20:13 | 59.25498 | 23.30035 | 19204 ft | 370 kts | 96° |
| 2026-05-04 20:13 | 59.25329 | 23.35049 | 19007 ft | 369 kts | 96° |
| 2026-05-04 20:14 | 59.25164 | 23.39971 | 18819 ft | 368 kts | 96° |
| 2026-05-04 20:14 | 59.24993 | 23.44964 | 18635 ft | 366 kts | 96° |
| 2026-05-04 20:14 | 59.24873 | 23.49918 | 18282 ft | 364 kts | 90° |
| 2026-05-04 20:14 | 59.25122 | 23.54832 | 17637 ft | 363 kts | 83° |
| 2026-05-04 20:15 | 59.25497 | 23.59692 | 17023 ft | 360 kts | 82° |
| 2026-05-04 20:15 | 59.25829 | 23.64502 | 16450 ft | 356 kts | 85° |
| 2026-05-04 20:15 | 59.26064 | 23.69304 | 15900 ft | 353 kts | 87° |
| 2026-05-04 20:15 | 59.26269 | 23.74067 | 15375 ft | 350 kts | 87° |
| 2026-05-04 20:16 | 59.26477 | 23.78771 | 14862 ft | 347 kts | 86° |
| 2026-05-04 20:16 | 59.26688 | 23.83454 | 14375 ft | 343 kts | 86° |
| 2026-05-04 20:16 | 59.26910 | 23.88086 | 13896 ft | 340 kts | 86° |
| 2026-05-04 20:16 | 59.27130 | 23.92671 | 13425 ft | 338 kts | 86° |
| 2026-05-04 20:17 | 59.27347 | 23.97220 | 12932 ft | 335 kts | 86° |
| 2026-05-04 20:17 | 59.27564 | 24.01729 | 12456 ft | 331 kts | 86° |
| 2026-05-04 20:17 | 59.27776 | 24.06195 | 11993 ft | 329 kts | 86° |
| 2026-05-04 20:17 | 59.27982 | 24.10570 | 11552 ft | 326 kts | 86° |
| 2026-05-04 20:18 | 59.28186 | 24.14954 | 11124 ft | 323 kts | 86° |
| 2026-05-04 20:18 | 59.28388 | 24.19311 | 10693 ft | 320 kts | 86° |
| 2026-05-04 20:18 | 59.28587 | 24.23632 | 10280 ft | 318 kts | 86° |
| 2026-05-04 20:18 | 59.28784 | 24.27907 | 9887 ft | 315 kts | 86° |
| 2026-05-04 20:19 | 59.28975 | 24.32158 | 9468 ft | 312 kts | 86° |
| 2026-05-04 20:19 | 59.29167 | 24.36377 | 9059 ft | 309 kts | 85° |
| 2026-05-04 20:19 | 59.29353 | 24.40542 | 8650 ft | 306 kts | 85° |
| 2026-05-04 20:19 | 59.29537 | 24.44658 | 8261 ft | 302 kts | 85° |
| 2026-05-04 20:20 | 59.29714 | 24.48734 | 7888 ft | 299 kts | 85° |
| 2026-05-04 20:20 | 59.29894 | 24.52773 | 7517 ft | 296 kts | 85° |
| 2026-05-04 20:20 | 59.30069 | 24.56782 | 7110 ft | 295 kts | 85° |
| 2026-05-04 20:20 | 59.30239 | 24.60751 | 6846 ft | 289 kts | 85° |
| 2026-05-04 20:21 | 59.30402 | 24.64570 | 6850 ft | 275 kts | 85° |
| 2026-05-04 20:21 | 59.30557 | 24.68226 | 6837 ft | 264 kts | 85° |
| 2026-05-04 20:21 | 59.30859 | 24.75423 | 6465 ft | 266 kts | 85° |
| 2026-05-04 20:22 | 59.31008 | 24.78981 | 6334 ft | 265 kts | 85° |
| 2026-05-04 20:22 | 59.31153 | 24.82554 | 5991 ft | 263 kts | 85° |
| 2026-05-04 20:22 | 59.31303 | 24.86107 | 5624 ft | 261 kts | 85° |
| 2026-05-04 20:22 | 59.31446 | 24.89624 | 5271 ft | 259 kts | 85° |
| 2026-05-04 20:23 | 59.31589 | 24.93125 | 4921 ft | 257 kts | 84° |
| 2026-05-04 20:23 | 59.31730 | 24.96592 | 4574 ft | 255 kts | 85° |
| 2026-05-04 20:23 | 59.31872 | 25.00051 | 4214 ft | 254 kts | 84° |
| 2026-05-04 20:23 | 59.32020 | 25.03483 | 3873 ft | 252 kts | 84° |
| 2026-05-04 20:24 | 59.32168 | 25.06894 | 3545 ft | 250 kts | 85° |
| 2026-05-04 20:24 | 59.32306 | 25.10270 | 3203 ft | 248 kts | 85° |
| 2026-05-04 20:24 | 59.32437 | 25.13638 | 2874 ft | 247 kts | 85° |
| 2026-05-04 20:24 | 59.32560 | 25.16884 | 2864 ft | 232 kts | 85° |
| 2026-05-04 20:25 | 59.32775 | 25.19895 | 2836 ft | 216 kts | 66° |
| 2026-05-04 20:25 | 59.33682 | 25.22019 | 2797 ft | 198 kts | 25° |
| 2026-05-04 20:25 | 59.34914 | 25.23048 | 2649 ft | 189 kts | 12° |
| 2026-05-04 20:25 | 59.36205 | 25.23651 | 2361 ft | 189 kts | 3° |
| 2026-05-04 20:26 | 59.37476 | 25.23942 | 2271 ft | 179 kts | 357° |
| 2026-05-04 20:26 | 59.38672 | 25.24034 | 2224 ft | 170 kts | 354° |
| 2026-05-04 20:26 | 59.39808 | 25.23944 | 2210 ft | 155 kts | 338° |
| 2026-05-04 20:26 | 59.40504 | 25.22642 | 2206 ft | 135 kts | 287° |
| 2026-05-04 20:27 | 59.40786 | 25.20914 | 2204 ft | 132 kts | 282° |
| 2026-05-04 20:27 | 59.40982 | 25.19174 | 2200 ft | 132 kts | 277° |
| 2026-05-04 20:27 | 59.41091 | 25.17376 | 2201 ft | 133 kts | 274° |
| 2026-05-04 20:27 | 59.41160 | 25.15513 | 2090 ft | 141 kts | 272° |
| 2026-05-04 20:28 | 59.41210 | 25.13570 | 1960 ft | 142 kts | 271° |
| 2026-05-04 20:28 | 59.41235 | 25.11667 | 1981 ft | 137 kts | 270° |
| 2026-05-04 20:28 | 59.41255 | 25.09834 | 2072 ft | 133 kts | 270° |
| 2026-05-04 20:28 | 59.41270 | 25.07980 | 2148 ft | 140 kts | 270° |
| 2026-05-04 20:29 | 59.41290 | 25.05962 | 2034 ft | 156 kts | 270° |
| 2026-05-04 20:29 | 59.41305 | 25.03819 | 1943 ft | 155 kts | 269° |
| 2026-05-04 20:29 | 59.41309 | 25.01730 | 1847 ft | 151 kts | 269° |
| 2026-05-04 20:29 | 59.41309 | 24.99716 | 1711 ft | 145 kts | 269° |
| 2026-05-04 20:30 | 59.41319 | 24.97845 | 1586 ft | 122 kts | 268° |
| 2026-05-04 20:30 | 59.41314 | 24.96270 | 1277 ft | 114 kts | 265° |
| 2026-05-04 20:30 | 59.41293 | 24.94793 | 1037 ft | 105 kts | 269° |
| 2026-05-04 20:30 | 59.41308 | 24.93306 | 838 ft | 111 kts | 268° |
| 2026-05-04 20:31 | 59.41298 | 24.91796 | 679 ft | 109 kts | 266° |
| 2026-05-04 20:31 | 59.41315 | 24.90304 | 541 ft | 108 kts | 266° |
| 2026-05-04 20:31 | 59.41315 | 24.88829 | 428 ft | 109 kts | 266° |
| 2026-05-04 20:31 | 59.41314 | 24.87325 | 270 ft | 110 kts | 268° |
| 2026-05-04 20:32 | 59.41318 | 24.85865 | 165 ft | 102 kts | 266° |
| 2026-05-04 20:32 | 59.41319 | 24.84646 | 156 ft | 77 kts | 271° |
| 2026-05-04 20:32 | 59.41324 | 24.83923 | 159 ft | 51 kts | 269° |
| 2026-05-04 20:32 | 59.41325 | 24.83169 | 159 ft | 56 kts | 272° |
| 2026-05-04 20:33 | 59.41383 | 24.82611 | 157 ft | 34 kts | 298° |
| 2026-05-04 20:33 | 59.41472 | 24.82289 | 158 ft | 22 kts | 294° |
| 2026-05-04 20:33 | 59.41504 | 24.82047 | 158 ft | 15 kts | 270° |
| 2026-05-04 20:33 | 59.41504 | 24.81872 | 158 ft | 15 kts | 270° |
| 2026-05-04 20:34 | 59.41503 | 24.81637 | 158 ft | 18 kts | 268° |
| 2026-05-04 20:34 | 59.41504 | 24.81378 | 158 ft | 20 kts | 272° |
| 2026-05-04 20:34 | 59.41551 | 24.81185 | 158 ft | 14 kts | 355° |
| 2026-05-04 20:34 | 59.41621 | 24.81172 | 158 ft | 12 kts | 343° |
| 2026-05-04 20:35 | 59.41665 | 24.81024 | 158 ft | 14 kts | 273° |
| 2026-05-04 20:35 | 59.41667 | 24.80813 | 158 ft | 17 kts | 271° |
| 2026-05-04 20:35 | 59.41665 | 24.80575 | 158 ft | 18 kts | 273° |
| 2026-05-04 20:35 | 59.41738 | 24.80395 | 158 ft | 18 kts | 277° |
| 2026-05-04 20:36 | 59.41750 | 24.80147 | 158 ft | 16 kts | 270° |
| 2026-05-04 20:36 | 59.41743 | 24.80058 | 158 ft | 2 kts | 211° |
| 2026-05-04 20:36 | 59.41717 | 24.80050 | 158 ft | 0 kts | 179° |
| 2026-05-04 20:36 | 59.41688 | 24.80051 | 158 ft | 0 kts | 182° |